createdAt,value
2019-05-02T00:01:42.923Z,79.41
2019-05-02T00:04:12.479Z,78.45
2019-05-02T00:06:42.435Z,77.91
2019-05-02T00:09:09.234Z,78.73
2019-05-02T00:11:33.859Z,79.37
2019-05-02T00:14:01.617Z,79.13
2019-05-02T00:16:29.060Z,78.65
2019-05-02T00:18:56.471Z,78.96
2019-05-02T00:21:23.960Z,80.05
2019-05-02T00:23:51.430Z,80.68
2019-05-02T00:26:18.914Z,80.18
2019-05-02T00:28:47.952Z,82.15
2019-05-02T00:31:13.826Z,81.50
2019-05-02T00:33:41.295Z,80.33
2019-05-02T00:36:08.821Z,80.33
2019-05-02T00:38:38.355Z,80.97
2019-05-02T00:41:03.812Z,81.51
2019-05-02T00:43:34.418Z,82.09
2019-05-02T00:45:59.736Z,83.48
2019-05-02T00:48:27.045Z,82.08
2019-05-02T00:50:54.547Z,83.96
2019-05-02T00:53:21.983Z,82.80
2019-05-02T00:55:49.419Z,82.44
2019-05-02T00:58:16.919Z,82.52
2019-05-02T01:00:56.056Z,82.63
2019-05-02T01:03:23.483Z,82.00
2019-05-02T01:05:50.923Z,81.49
2019-05-02T01:08:18.734Z,81.20
2019-05-02T01:10:46.148Z,81.06
2019-05-02T01:13:14.795Z,82.25
2019-05-02T01:15:44.007Z,80.87
2019-05-02T01:18:08.772Z,80.39
2019-05-02T01:20:36.171Z,81.20
2019-05-02T01:23:03.919Z,82.77
2019-05-02T01:25:31.397Z,81.72
2019-05-02T01:28:04.294Z,81.52
2019-05-02T01:30:37.164Z,81.72
2019-05-02T01:33:17.448Z,81.79
2019-05-02T01:35:47.135Z,81.24
2019-05-02T01:38:18.979Z,81.29
2019-05-02T01:40:48.152Z,81.07
2019-05-02T01:43:23.990Z,79.78
2019-05-02T01:45:48.375Z,81.50
2019-05-02T01:48:15.803Z,80.63
2019-05-02T01:50:43.285Z,82.14
2019-05-02T01:53:10.740Z,85.00
2019-05-02T01:55:38.180Z,84.94
2019-05-02T01:58:05.613Z,84.34
2019-05-02T02:00:33.069Z,83.93
2019-05-02T02:03:04.278Z,82.87
2019-05-02T02:05:32.215Z,81.12
2019-05-02T02:07:57.199Z,82.26
2019-05-02T02:10:22.840Z,83.54
2019-05-02T02:13:02.935Z,84.73
2019-05-02T02:15:17.756Z,84.70
2019-05-02T02:17:46.859Z,83.74
2019-05-02T02:20:14.026Z,83.08
2019-05-02T02:22:44.025Z,82.41
2019-05-02T02:25:36.122Z,83.33
2019-05-02T02:28:00.904Z,83.22
2019-05-02T02:30:27.081Z,82.25
2019-05-02T02:33:00.613Z,82.59
2019-05-02T02:35:21.963Z,83.25
2019-05-02T02:37:52.935Z,83.90
2019-05-02T02:40:16.839Z,84.82
2019-05-02T02:42:44.268Z,84.41
2019-05-02T02:45:18.751Z,86.13
2019-05-02T02:47:46.027Z,86.03
2019-05-02T02:50:15.252Z,84.67
2019-05-02T02:52:44.743Z,83.76
2019-05-02T02:55:10.279Z,82.75
2019-05-02T02:57:37.700Z,81.99
2019-05-02T03:00:08.705Z,82.45
2019-05-02T03:02:33.260Z,82.62
2019-05-02T03:05:00.683Z,83.50
2019-05-02T03:07:28.980Z,83.95
2019-05-02T03:09:59.742Z,84.00
2019-05-02T03:12:41.472Z,83.63
2019-05-02T03:15:06.369Z,83.30
2019-05-02T03:17:33.771Z,83.10
2019-05-02T03:20:03.722Z,83.77
2019-05-02T03:22:34.976Z,83.68
2019-05-02T03:24:56.196Z,84.35
2019-05-02T03:27:29.971Z,84.49
2019-05-02T03:29:51.165Z,85.50
2019-05-02T03:32:31.348Z,86.47
2019-05-02T03:34:52.299Z,86.53
2019-05-02T03:37:14.328Z,85.49
2019-05-02T03:39:41.729Z,85.12
2019-05-02T03:42:09.195Z,84.73
2019-05-02T03:44:36.634Z,84.47
2019-05-02T03:47:04.955Z,84.26
2019-05-02T03:49:31.575Z,84.50
2019-05-02T03:52:02.522Z,84.39
2019-05-02T03:54:26.496Z,84.24
2019-05-02T03:56:53.926Z,84.56
2019-05-02T03:59:21.616Z,84.70
2019-05-02T04:01:49.105Z,85.17
2019-05-02T04:04:20.591Z,84.81
2019-05-02T04:06:44.825Z,85.53
2019-05-02T04:09:12.257Z,84.81
2019-05-02T04:11:40.996Z,83.90
2019-05-02T04:14:15.173Z,82.86
2019-05-02T04:16:34.601Z,83.00
2019-05-02T04:19:02.039Z,84.08
2019-05-02T04:21:29.465Z,84.50
2019-05-02T04:24:06.709Z,85.11
2019-05-02T04:26:24.406Z,84.97
2019-05-02T04:28:52.195Z,84.60
2019-05-02T04:31:24.720Z,84.18
2019-05-02T04:33:46.781Z,84.36
2019-05-02T04:36:17.287Z,83.76
2019-05-02T04:38:47.447Z,84.05
2019-05-02T04:41:09.510Z,84.30
2019-05-02T04:43:40.642Z,84.59
2019-05-02T04:46:09.342Z,84.15
2019-05-02T04:48:34.818Z,84.19
2019-05-02T04:51:10.387Z,83.75
2019-05-02T04:53:36.943Z,83.07
2019-05-02T04:56:01.622Z,83.14
2019-05-02T04:58:27.544Z,83.53
2019-05-02T05:00:53.494Z,83.32
2019-05-02T05:03:21.263Z,82.46
2019-05-02T05:05:48.213Z,81.62
2019-05-02T05:08:17.528Z,82.76
2019-05-02T05:10:44.917Z,83.05
2019-05-02T05:13:12.096Z,83.61
2019-05-02T05:15:44.559Z,83.36
2019-05-02T05:18:04.494Z,83.95
2019-05-02T05:20:30.792Z,84.58
2019-05-02T05:22:58.219Z,83.92
2019-05-02T05:25:37.719Z,83.96
2019-05-02T05:28:05.826Z,84.06
2019-05-02T05:30:30.466Z,83.99
2019-05-02T05:32:58.364Z,83.80
2019-05-02T05:35:25.418Z,84.41
2019-05-02T05:37:53.424Z,84.07
2019-05-02T05:40:22.719Z,83.41
2019-05-02T05:42:48.192Z,83.35
2019-05-02T05:45:17.340Z,83.49
2019-05-02T05:47:42.791Z,83.89
2019-05-02T05:50:10.241Z,84.06
2019-05-02T05:52:38.680Z,83.93
2019-05-02T05:55:05.203Z,83.32
2019-05-02T05:57:32.681Z,82.91
2019-05-02T06:00:03.723Z,83.19
2019-05-02T06:02:28.416Z,83.11
2019-05-02T06:04:59.066Z,83.43
2019-05-02T06:07:22.556Z,83.32
2019-05-02T06:09:51.385Z,83.09
2019-05-02T06:12:19.049Z,83.35
2019-05-02T06:14:46.676Z,83.59
2019-05-02T06:17:13.967Z,84.84
2019-05-02T06:19:41.370Z,85.79
2019-05-02T06:22:08.830Z,85.08
2019-05-02T06:24:36.305Z,84.56
2019-05-02T06:27:03.728Z,85.12
2019-05-02T06:29:31.160Z,84.55
2019-05-02T06:31:59.526Z,84.48
2019-05-02T06:34:26.930Z,84.49
2019-05-02T06:36:54.379Z,84.82
2019-05-02T06:39:21.854Z,84.33
2019-05-02T06:41:51.994Z,84.54
2019-05-02T06:44:23.856Z,85.04
2019-05-02T06:46:46.284Z,85.03
2019-05-02T06:49:13.706Z,85.29
2019-05-02T06:51:41.164Z,85.07
2019-05-02T06:54:08.604Z,84.55
2019-05-02T06:56:36.050Z,84.77
2019-05-02T06:59:03.504Z,84.48
2019-05-02T07:01:30.912Z,84.63
2019-05-02T07:03:58.336Z,84.13
2019-05-02T07:06:26.004Z,83.75
2019-05-02T07:08:53.269Z,83.81
2019-05-02T07:11:20.917Z,83.68
2019-05-02T07:13:48.342Z,83.62
2019-05-02T07:16:30.301Z,83.84
2019-05-02T07:18:49.578Z,83.12
2019-05-02T07:21:17.333Z,83.30
2019-05-02T07:23:42.983Z,83.28
2019-05-02T07:26:10.433Z,84.38
2019-05-02T07:28:40.170Z,84.43
2019-05-02T07:31:06.569Z,85.18
2019-05-02T07:33:37.413Z,84.53
2019-05-02T07:36:01.352Z,84.27
2019-05-02T07:38:27.701Z,83.65
2019-05-02T07:40:55.168Z,84.11
2019-05-02T07:43:22.650Z,83.63
2019-05-02T07:45:50.182Z,83.04
2019-05-02T07:48:18.966Z,83.23
2019-05-02T07:50:46.389Z,82.89
2019-05-02T07:53:14.325Z,82.56
2019-05-02T07:55:40.859Z,82.22
2019-05-02T07:58:08.263Z,82.43
2019-05-02T08:00:37.028Z,82.95
2019-05-02T08:03:04.969Z,82.95
2019-05-02T08:05:29.910Z,82.73
2019-05-02T08:07:57.732Z,82.10
2019-05-02T08:10:25.265Z,83.02
2019-05-02T08:12:52.759Z,83.43
2019-05-02T08:15:20.230Z,82.84
2019-05-02T08:17:53.319Z,82.61
2019-05-02T08:20:19.091Z,82.66
2019-05-02T08:22:44.023Z,83.05
2019-05-02T08:25:10.727Z,82.67
2019-05-02T08:27:38.218Z,82.01
2019-05-02T08:30:05.911Z,81.82
2019-05-02T08:32:33.185Z,81.75
2019-05-02T08:35:00.641Z,82.19
2019-05-02T08:37:28.048Z,82.57
2019-05-02T08:39:55.507Z,82.48
2019-05-02T08:42:27.731Z,81.35
2019-05-02T08:44:56.421Z,81.75
2019-05-02T08:47:23.870Z,81.48
2019-05-02T08:49:49.257Z,82.61
2019-05-02T08:52:15.057Z,82.04
2019-05-02T08:54:42.516Z,82.02
2019-05-02T08:57:09.992Z,81.82
2019-05-02T08:59:37.442Z,80.93
2019-05-02T09:02:04.942Z,81.01
2019-05-02T09:04:33.090Z,80.60
2019-05-02T09:07:00.912Z,80.53
2019-05-02T09:09:29.484Z,80.92
2019-05-02T09:12:09.080Z,81.04
2019-05-02T09:14:23.185Z,81.12
2019-05-02T09:16:52.332Z,80.96
2019-05-02T09:19:21.325Z,80.87
2019-05-02T09:21:45.549Z,80.25
2019-05-02T09:24:18.889Z,80.48
2019-05-02T09:26:42.458Z,80.48
2019-05-02T09:29:08.063Z,79.67
2019-05-02T09:31:36.677Z,79.73
2019-05-02T09:34:03.013Z,79.77
2019-05-02T09:36:32.280Z,80.03
2019-05-02T09:38:58.889Z,79.50
2019-05-02T09:41:26.998Z,79.02
2019-05-02T09:43:53.873Z,79.18
2019-05-02T09:46:21.775Z,78.78
2019-05-02T09:48:48.816Z,78.59
2019-05-02T09:51:17.321Z,78.51
2019-05-02T09:53:43.801Z,78.11
2019-05-02T09:56:12.668Z,78.24
2019-05-02T09:58:39.021Z,78.24
2019-05-02T10:01:09.072Z,78.52
2019-05-02T10:03:37.950Z,77.96
2019-05-02T10:06:08.340Z,77.55
2019-05-02T10:08:32.942Z,76.75
2019-05-02T10:11:02.614Z,76.73
2019-05-02T10:13:27.857Z,77.10
2019-05-02T10:15:55.937Z,75.60
2019-05-02T10:18:25.513Z,75.25
2019-05-02T10:20:52.401Z,75.31
2019-05-02T10:23:19.472Z,74.45
2019-05-02T10:25:46.905Z,74.69
2019-05-02T10:28:13.372Z,75.14
2019-05-02T10:30:42.607Z,75.63
2019-05-02T10:33:08.340Z,74.39
2019-05-02T10:35:40.822Z,74.38
2019-05-02T10:38:09.519Z,72.63
2019-05-02T10:40:33.746Z,73.56
2019-05-02T10:43:02.875Z,73.46
2019-05-02T10:45:28.606Z,72.16
2019-05-02T10:47:56.472Z,71.99
2019-05-02T10:50:24.674Z,72.03
2019-05-02T10:52:52.729Z,71.53
2019-05-02T10:55:22.261Z,71.05
2019-05-02T10:58:05.601Z,71.46
2019-05-02T11:00:35.069Z,70.41
2019-05-02T11:03:08.019Z,69.58
2019-05-02T11:05:37.319Z,70.36
2019-05-02T11:08:06.217Z,70.49
2019-05-02T11:10:32.176Z,69.20
2019-05-02T11:13:01.890Z,69.59
2019-05-02T11:15:33.311Z,69.47
2019-05-02T11:18:02.296Z,69.29
2019-05-02T11:20:28.250Z,68.49
2019-05-02T11:22:56.646Z,68.82
2019-05-02T11:25:24.246Z,68.65
2019-05-02T11:27:52.518Z,68.11
2019-05-02T11:30:22.285Z,67.78
2019-05-02T11:32:46.720Z,67.51
2019-05-02T11:35:14.733Z,67.29
2019-05-02T11:37:42.330Z,67.96
2019-05-02T11:40:09.730Z,66.52
2019-05-02T11:42:37.238Z,67.38
2019-05-02T11:45:04.719Z,66.99
2019-05-02T11:47:32.876Z,67.77
2019-05-02T11:49:59.732Z,66.52
2019-05-02T11:52:32.067Z,66.26
2019-05-02T11:54:55.005Z,66.32
2019-05-02T11:57:28.491Z,66.54
2019-05-02T11:59:51.942Z,65.25
2019-05-02T12:02:28.510Z,65.57
2019-05-02T12:04:55.981Z,66.09
2019-05-02T12:07:23.421Z,66.18
2019-05-02T12:09:56.508Z,65.49
2019-05-02T12:12:18.950Z,65.84
2019-05-02T12:14:46.462Z,65.29
2019-05-02T12:17:13.901Z,64.56
2019-05-02T12:19:42.556Z,64.22
2019-05-02T12:22:12.949Z,64.43
2019-05-02T12:24:40.363Z,64.99
2019-05-02T12:27:03.722Z,64.08
2019-05-02T12:29:31.153Z,62.88
2019-05-02T12:31:58.590Z,63.40
2019-05-02T12:34:26.099Z,63.83
2019-05-02T12:36:53.518Z,63.24
2019-05-02T12:39:22.183Z,62.60
2019-05-02T12:41:48.819Z,62.87
2019-05-02T12:44:15.872Z,62.97
2019-05-02T12:46:43.333Z,62.68
2019-05-02T12:49:22.618Z,62.38
2019-05-02T12:51:38.308Z,62.68
2019-05-02T12:54:05.738Z,63.00
2019-05-02T12:56:33.218Z,62.60
2019-05-02T12:59:02.457Z,61.84
2019-05-02T13:01:29.956Z,62.68
2019-05-02T13:03:57.487Z,62.14
2019-05-02T13:06:24.940Z,61.88
2019-05-02T13:08:52.803Z,62.19
2019-05-02T13:11:19.886Z,61.78
2019-05-02T13:13:47.311Z,60.73
2019-05-02T13:16:14.793Z,60.92
2019-05-02T13:18:42.434Z,61.25
2019-05-02T13:21:15.159Z,60.57
2019-05-02T13:23:37.619Z,61.13
2019-05-02T13:26:10.432Z,61.02
2019-05-02T13:28:32.515Z,59.84
2019-05-02T13:31:02.505Z,60.28
2019-05-02T13:33:32.445Z,60.44
2019-05-02T13:36:02.385Z,59.75
2019-05-02T13:38:27.692Z,60.31
2019-05-02T13:40:55.123Z,60.26
2019-05-02T13:43:22.575Z,59.25
2019-05-02T13:45:55.627Z,60.09
2019-05-02T13:48:23.072Z,59.83
2019-05-02T13:50:51.842Z,60.23
2019-05-02T13:53:18.003Z,60.45
2019-05-02T13:55:46.219Z,60.25
2019-05-02T13:58:13.677Z,59.84
2019-05-02T14:00:42.487Z,61.01
2019-05-02T14:03:08.933Z,60.05
2019-05-02T14:05:36.384Z,60.18
2019-05-02T14:08:09.411Z,60.49
2019-05-02T14:10:39.433Z,60.15
2019-05-02T14:13:04.342Z,60.47
2019-05-02T14:15:32.478Z,60.81
2019-05-02T14:18:02.337Z,60.17
2019-05-02T14:20:27.873Z,60.06
2019-05-02T14:22:55.332Z,59.56
2019-05-02T14:25:22.762Z,60.18
2019-05-02T14:27:53.841Z,60.33
2019-05-02T14:30:17.669Z,60.26
2019-05-02T14:32:45.131Z,60.48
2019-05-02T14:35:18.481Z,61.14
2019-05-02T14:37:43.295Z,60.29
2019-05-02T14:40:13.184Z,60.70
2019-05-02T14:42:41.871Z,61.11
2019-05-02T14:45:24.522Z,61.00
2019-05-02T14:47:36.693Z,60.91
2019-05-02T14:50:23.656Z,61.16
2019-05-02T14:53:03.460Z,61.07
2019-05-02T14:55:32.523Z,61.55
2019-05-02T14:58:05.933Z,61.15
2019-05-02T15:00:39.462Z,66.58
2019-05-02T15:03:00.450Z,66.78
2019-05-02T15:05:32.668Z,70.26
2019-05-02T15:08:02.601Z,72.20
2019-05-02T15:10:28.807Z,74.58
2019-05-02T15:12:59.454Z,75.66
2019-05-02T15:15:27.930Z,75.57
2019-05-02T15:18:00.076Z,77.30
2019-05-02T15:20:38.640Z,77.98
2019-05-02T15:22:57.545Z,78.01
2019-05-02T15:25:25.493Z,80.99
2019-05-02T15:28:00.003Z,81.43
2019-05-02T15:30:26.922Z,82.08
2019-05-02T15:32:58.324Z,81.53
2019-05-02T15:35:29.102Z,81.47
2019-05-02T15:38:01.802Z,80.57
2019-05-02T15:42:56.678Z,80.62
2019-05-02T15:45:23.975Z,81.82
2019-05-02T15:47:52.665Z,81.55
2019-05-02T15:50:25.470Z,80.53
2019-05-02T15:53:09.904Z,81.15
2019-05-02T15:55:39.548Z,81.10
2019-05-02T15:58:04.431Z,80.26
2019-05-02T16:00:33.537Z,81.10
2019-05-02T16:03:04.358Z,79.91
2019-05-02T16:05:36.465Z,80.75
2019-05-02T16:08:08.288Z,80.88
2019-05-02T16:10:31.605Z,81.31
2019-05-02T16:12:59.573Z,81.46
2019-05-02T16:15:27.715Z,80.72
2019-05-02T16:17:56.824Z,81.38
2019-05-02T16:20:48.829Z,81.33
2019-05-02T16:23:13.362Z,81.45
2019-05-02T16:25:44.344Z,81.80
2019-05-02T16:28:17.626Z,80.90
2019-05-02T16:30:49.580Z,81.61
2019-05-02T16:33:20.840Z,80.01
2019-05-02T16:35:51.522Z,83.09
2019-05-02T16:38:26.842Z,86.30
2019-05-02T16:41:09.752Z,84.16
2019-05-02T16:43:32.921Z,84.70
2019-05-02T16:46:06.830Z,87.95
2019-05-02T16:48:39.041Z,88.02
2019-05-02T16:51:08.262Z,89.47
2019-05-02T16:53:33.890Z,90.24
2019-05-02T16:56:03.656Z,91.48
2019-05-02T16:58:28.952Z,91.60
2019-05-02T17:00:57.951Z,91.76
2019-05-02T17:03:42.807Z,91.15
2019-05-02T17:06:16.866Z,91.66
2019-05-02T17:08:57.171Z,92.05
2019-05-02T17:11:32.383Z,91.96
2019-05-02T17:13:59.712Z,91.92
2019-05-02T17:16:31.574Z,91.40
2019-05-02T17:18:58.321Z,91.31
2019-05-02T17:21:31.431Z,90.72
2019-05-02T17:23:54.668Z,91.83
2019-05-02T17:26:22.827Z,92.08
2019-05-02T17:28:53.554Z,91.65
2019-05-02T17:31:23.021Z,92.67
2019-05-02T17:33:50.938Z,92.95
2019-05-02T17:36:21.518Z,92.77
2019-05-02T17:38:54.429Z,93.21
2019-05-02T17:41:22.600Z,92.45
2019-05-02T17:43:50.133Z,92.54
2019-05-02T17:46:18.301Z,93.25
2019-05-02T17:48:47.622Z,92.44
2019-05-02T17:51:33.871Z,91.99
2019-05-02T17:53:58.109Z,92.24
2019-05-02T17:56:25.718Z,91.66
2019-05-02T17:58:57.891Z,90.99
2019-05-02T18:01:26.320Z,91.20
2019-05-02T18:03:55.456Z,91.41
2019-05-02T18:06:32.345Z,91.07
2019-05-02T18:08:55.348Z,91.22
2019-05-02T18:11:24.385Z,91.20
2019-05-02T18:13:51.997Z,91.23
2019-05-02T18:16:21.659Z,90.64
2019-05-02T18:18:47.368Z,90.73
2019-05-02T18:21:17.743Z,91.04
2019-05-02T18:23:52.071Z,91.12
2019-05-02T18:26:19.026Z,91.75
2019-05-02T18:28:49.349Z,92.42
2019-05-02T18:31:14.550Z,92.56
2019-05-02T18:33:48.425Z,92.04
2019-05-02T18:36:23.861Z,92.08
2019-05-02T18:39:00.200Z,92.60
2019-05-02T18:41:27.928Z,92.75
2019-05-02T18:44:02.718Z,92.58
2019-05-02T18:46:36.783Z,93.42
2019-05-02T18:49:02.753Z,93.75
2019-05-02T18:51:29.452Z,94.02
2019-05-02T18:53:58.020Z,93.90
2019-05-02T18:56:24.505Z,93.62
2019-05-02T18:58:53.522Z,93.81
2019-05-02T19:01:20.979Z,93.22
2019-05-02T19:03:52.527Z,92.75
2019-05-02T19:06:16.853Z,92.49
2019-05-02T19:08:46.782Z,93.05
2019-05-02T19:11:12.558Z,93.32
2019-05-02T19:13:42.666Z,93.61
2019-05-02T19:16:19.431Z,93.09
2019-05-02T19:18:49.040Z,92.89
2019-05-02T19:23:53.333Z,93.48
2019-05-02T19:26:22.125Z,93.26
2019-05-02T19:28:53.667Z,93.04
2019-05-02T19:31:22.435Z,93.21
2019-05-02T19:33:49.423Z,93.57
2019-05-02T19:36:24.478Z,94.32
2019-05-02T19:38:44.480Z,95.11
2019-05-02T19:41:12.293Z,96.00
2019-05-02T19:46:16.842Z,96.50
2019-05-02T19:48:43.040Z,96.56
2019-05-02T19:51:12.691Z,95.71
2019-05-02T19:53:37.365Z,95.85
2019-05-02T19:56:06.704Z,95.50
2019-05-02T19:58:36.599Z,94.95
2019-05-02T20:00:59.790Z,95.45
2019-05-02T20:03:27.233Z,95.77
2019-05-02T20:05:56.800Z,95.40
2019-05-02T20:08:24.540Z,94.99
2019-05-02T20:10:56.875Z,95.11
2019-05-02T20:13:20.265Z,95.58
2019-05-02T20:15:47.387Z,95.89
2019-05-02T20:18:14.842Z,96.61
2019-05-02T20:20:45.680Z,96.60
2019-05-02T20:23:16.203Z,96.53
2019-05-02T20:25:42.570Z,95.95
2019-05-02T20:28:08.241Z,95.71
2019-05-02T20:30:35.694Z,95.63
2019-05-02T20:33:05.240Z,95.71
2019-05-02T20:35:31.917Z,96.76
2019-05-02T20:37:58.442Z,97.14
2019-05-02T20:40:31.898Z,96.41
2019-05-02T20:42:58.696Z,95.80
2019-05-02T20:45:26.158Z,94.54
2019-05-02T20:47:53.665Z,93.60
2019-05-02T20:50:22.394Z,93.02
2019-05-02T20:52:49.589Z,92.94
2019-05-02T20:55:17.052Z,92.67
2019-05-02T20:57:44.543Z,91.97
2019-05-02T21:00:23.485Z,90.68
2019-05-02T21:02:49.216Z,90.07
2019-05-02T21:05:19.329Z,89.12
2019-05-02T21:07:46.816Z,89.44
2019-05-02T21:10:14.223Z,89.59
2019-05-02T21:12:41.966Z,89.34
2019-05-02T21:15:09.138Z,88.68
2019-05-02T21:17:36.556Z,88.59
2019-05-02T21:20:04.042Z,88.36
2019-05-02T21:22:32.763Z,87.39
2019-05-02T21:24:59.200Z,87.78
2019-05-02T21:27:26.691Z,87.06
2019-05-02T21:29:54.151Z,86.91
2019-05-02T21:32:22.983Z,86.11
2019-05-02T21:34:49.072Z,86.36
2019-05-02T21:37:16.475Z,86.67
2019-05-02T21:39:43.933Z,86.69
2019-05-02T21:42:11.336Z,87.13
2019-05-02T21:44:39.429Z,87.61
2019-05-02T21:47:06.847Z,87.71
2019-05-02T21:49:53.884Z,87.67
2019-05-02T21:52:22.949Z,86.41
2019-05-02T21:54:52.100Z,86.86
2019-05-02T21:57:17.965Z,86.91
2019-05-02T21:59:45.443Z,87.21
2019-05-02T22:02:13.191Z,86.73
2019-05-02T22:04:42.325Z,87.58
2019-05-02T22:07:09.792Z,88.22
2019-05-02T22:09:37.256Z,88.88
2019-05-02T22:12:04.775Z,88.82
2019-05-02T22:14:32.873Z,88.81
2019-05-02T22:16:59.635Z,89.15
2019-05-02T22:19:27.054Z,89.66
2019-05-02T22:21:54.471Z,89.83
2019-05-02T22:24:21.870Z,90.56
2019-05-02T22:26:49.306Z,90.42
2019-05-02T22:29:16.700Z,90.99
2019-05-02T22:31:44.562Z,90.72
2019-05-02T22:36:47.538Z,91.03
2019-05-02T22:39:31.685Z,90.94
2019-05-02T22:41:58.685Z,90.30
2019-05-02T22:44:26.173Z,89.54
2019-05-02T22:46:53.629Z,88.75
2019-05-02T22:49:22.486Z,88.02
2019-05-02T22:51:49.021Z,87.73
2019-05-02T22:54:27.080Z,87.79
2019-05-02T22:56:44.074Z,87.21
2019-05-02T22:59:11.550Z,88.09
2019-05-02T23:01:39.008Z,89.22
2019-05-02T23:04:06.459Z,89.35
2019-05-02T23:06:33.927Z,88.93
2019-05-02T23:09:02.003Z,89.25
2019-05-02T23:11:28.899Z,89.97
2019-05-02T23:13:56.360Z,89.01
2019-05-02T23:16:24.767Z,89.88
2019-05-02T23:18:52.293Z,89.22
2019-05-02T23:21:21.713Z,89.22
2019-05-02T23:23:47.264Z,88.80
2019-05-02T23:26:15.515Z,89.48
2019-05-02T23:28:44.771Z,89.95
2019-05-02T23:31:14.048Z,90.29
2019-05-02T23:33:45.334Z,89.89
2019-05-02T23:36:12.785Z,89.60
2019-05-02T23:38:41.538Z,89.27
2019-05-02T23:41:08.400Z,89.19
2019-05-02T23:43:35.957Z,89.16
2019-05-02T23:46:03.415Z,88.89
2019-05-02T23:48:32.555Z,88.52
2019-05-02T23:50:58.382Z,89.05
2019-05-02T23:53:25.843Z,89.49
2019-05-02T23:55:53.306Z,89.04
2019-05-02T23:58:22.521Z,89.90
